Time;durP1;ratioP1;P1;durP2;ratioP2;P2;SDS_P1;SDS_P2;PMS_P1;PMS_P2;Temp;Humidity;BMP_temperature;BMP_pressure;BME280_temperature;BME280_humidity;BME280_pressure;Samples;Min_cycle;Max_cycle;Signal;HPM_P1;HPM_P2
2021/11/26 00:01:31;;;;;;;;;11.00;10.75;;;;;;;;5061885;28;11488;-81
2021/11/26 00:04:00;;;;;;;;;11.00;9.25;;;;;;;;5064292;28;12277;-81
2021/11/26 00:06:27;;;;;;;;;10.25;8.75;;;;;;;;5064116;28;11693;-83
2021/11/26 00:08:55;;;;;;;;;8.75;8.75;;;;;;;;5045592;28;11586;-83
2021/11/26 00:11:23;;;;;;;;;9.75;9.75;;;;;;;;5065489;28;11539;-83
2021/11/26 00:14:00;;;;;;;;;8.25;8.25;;;;;;;;5063822;28;11561;-83
2021/11/26 00:16:32;;;;;;;;;8.75;8.75;;;;;;;;5068617;28;11573;-84
2021/11/26 00:19:04;;;;;;;;;12.25;12.25;;;;;;;;5048670;28;12306;-83
2021/11/26 00:21:31;;;;;;;;;12.50;9.25;;;;;;;;5064005;28;11599;-84
2021/11/26 00:23:59;;;;;;;;;8.50;8.50;;;;;;;;5060825;28;11058;-84
2021/11/26 00:26:27;;;;;;;;;7.00;7.00;;;;;;;;5068506;28;11577;-83
2021/11/26 00:28:55;;;;;;;;;10.50;9.00;;;;;;;;5064748;28;11644;-83
2021/11/26 00:31:22;;;;;;;;;10.50;9.75;;;;;;;;5064636;28;11521;-83
2021/11/26 00:33:50;;;;;;;;;11.25;9.25;;;;;;;;5063627;28;11712;-82
2021/11/26 00:36:17;;;;;;;;;9.00;9.00;;;;;;;;5065676;28;11726;-84
2021/11/26 00:38:45;;;;;;;;;8.00;8.00;;;;;;;;5062696;28;12574;-83
2021/11/26 00:41:12;;;;;;;;;7.00;7.00;;;;;;;;5063417;28;11670;-83
2021/11/26 00:43:43;;;;;;;;;8.50;8.00;;;;;;;;5057644;28;11544;-82
2021/11/26 00:46:11;;;;;;;;;8.00;8.00;;;;;;;;5062701;28;11659;-83
2021/11/26 00:48:38;;;;;;;;;8.50;7.75;;;;;;;;5065825;28;11528;-83
2021/11/26 00:51:06;;;;;;;;;8.00;8.00;;;;;;;;5032192;28;11585;-82
2021/11/26 00:53:33;;;;;;;;;9.50;8.00;;;;;;;;5058972;28;11551;-82
2021/11/26 00:56:00;;;;;;;;;8.00;8.00;;;;;;;;5058943;28;11532;-82
2021/11/26 00:58:28;;;;;;;;;11.25;10.75;;;;;;;;5042956;28;11617;-83
2021/11/26 01:00:57;;;;;;;;;12.50;10.50;;;;;;;;5066836;28;11543;-80
2021/11/26 01:03:24;;;;;;;;;8.75;8.75;;;;;;;;5043019;28;11720;-84
2021/11/26 01:05:52;;;;;;;;;8.00;8.00;;;;;;;;5062153;28;11573;-83
2021/11/26 01:08:20;;;;;;;;;9.75;8.00;;;;;;;;5065624;28;11507;-84
2021/11/26 01:10:49;;;;;;;;;8.00;6.50;;;;;;;;5061546;28;11670;-85
2021/11/26 01:13:16;;;;;;;;;7.00;5.00;;;;;;;;5055778;28;11567;-83
2021/11/26 01:15:44;;;;;;;;;6.75;6.00;;;;;;;;5061180;28;11580;-83
2021/11/26 01:18:14;;;;;;;;;10.25;9.00;;;;;;;;5067730;28;11496;-83
2021/11/26 01:20:42;;;;;;;;;8.50;7.50;;;;;;;;5062621;28;11577;-83
2021/11/26 01:23:10;;;;;;;;;9.00;8.50;;;;;;;;5064316;28;11551;-82
2021/11/26 01:25:38;;;;;;;;;6.50;6.00;;;;;;;;5065998;28;11551;-84
2021/11/26 01:28:07;;;;;;;;;10.50;8.00;;;;;;;;5066712;28;11582;-83
2021/11/26 01:30:36;;;;;;;;;5.00;4.00;;;;;;;;5069852;28;11644;-82
2021/11/26 01:33:08;;;;;;;;;7.50;6.00;;;;;;;;5063857;28;11676;-83
2021/11/26 01:35:37;;;;;;;;;6.50;6.50;;;;;;;;5062773;28;12320;-82
2021/11/26 01:38:05;;;;;;;;;8.75;7.00;;;;;;;;5061817;28;11563;-82
2021/11/26 01:40:33;;;;;;;;;9.75;8.00;;;;;;;;5058623;28;11492;-83
2021/11/26 01:43:01;;;;;;;;;5.50;5.50;;;;;;;;5063647;28;11557;-81
2021/11/26 01:45:28;;;;;;;;;6.00;6.00;;;;;;;;5059683;28;11564;-82
2021/11/26 01:47:56;;;;;;;;;7.50;7.50;;;;;;;;5062668;28;11480;-82
2021/11/26 01:50:23;;;;;;;;;8.00;6.00;;;;;;;;5060195;28;11601;-81
2021/11/26 01:52:52;;;;;;;;;9.00;9.00;;;;;;;;5061174;28;11679;-81
2021/11/26 01:55:20;;;;;;;;;8.50;7.75;;;;;;;;5061711;28;11633;-82
2021/11/26 01:57:48;;;;;;;;;8.00;8.00;;;;;;;;5065461;28;11625;-82
2021/11/26 02:00:18;;;;;;;;;9.00;6.50;;;;;;;;5060300;28;11574;-81
2021/11/26 02:02:46;;;;;;;;;6.00;6.00;;;;;;;;5062358;28;11548;-82
2021/11/26 02:05:13;;;;;;;;;6.75;6.50;;;;;;;;5064864;28;11551;-82
2021/11/26 02:07:41;;;;;;;;;13.50;9.00;;;;;;;;5062775;28;11550;-81
2021/11/26 02:10:11;;;;;;;;;7.25;6.75;;;;;;;;5045662;28;11667;-82
2021/11/26 02:12:38;;;;;;;;;9.00;6.00;;;;;;;;5063670;28;11599;-81
2021/11/26 02:15:06;;;;;;;;;8.00;8.00;;;;;;;;5061876;28;11545;-84
2021/11/26 02:17:36;;;;;;;;;8.75;7.50;;;;;;;;5043456;28;11466;-83
2021/11/26 02:20:15;;;;;;;;;8.75;8.75;;;;;;;;5065076;28;11585;-84
2021/11/26 02:22:42;;;;;;;;;9.00;9.00;;;;;;;;5063845;28;11582;-84
2021/11/26 02:25:11;;;;;;;;;9.50;8.50;;;;;;;;5059915;28;11701;-83
2021/11/26 02:27:38;;;;;;;;;12.75;12.25;;;;;;;;5043476;28;11582;-83
2021/11/26 02:30:14;;;;;;;;;12.50;12.50;;;;;;;;5071029;28;11558;-83
2021/11/26 02:32:41;;;;;;;;;11.50;11.50;;;;;;;;5056887;28;11594;-82
2021/11/26 02:35:11;;;;;;;;;11.00;11.00;;;;;;;;5058820;28;11588;-83
2021/11/26 02:37:39;;;;;;;;;11.75;8.50;;;;;;;;5063272;28;11624;-83
2021/11/26 02:40:09;;;;;;;;;12.00;12.00;;;;;;;;5063993;28;11688;-83
2021/11/26 02:42:38;;;;;;;;;11.00;10.75;;;;;;;;5056820;28;11583;-83
2021/11/26 02:45:07;;;;;;;;;11.75;9.50;;;;;;;;5062577;28;11564;-83
2021/11/26 02:47:35;;;;;;;;;12.25;8.25;;;;;;;;5061341;28;11560;-82
2021/11/26 02:50:06;;;;;;;;;16.00;12.00;;;;;;;;5042526;28;11693;-82
2021/11/26 02:52:36;;;;;;;;;6.50;6.50;;;;;;;;5057884;28;11687;-83
2021/11/26 02:55:04;;;;;;;;;12.25;10.00;;;;;;;;5057922;28;11564;-83
2021/11/26 02:57:31;;;;;;;;;13.50;9.50;;;;;;;;5061228;28;11614;-83
2021/11/26 02:59:59;;;;;;;;;11.75;10.75;;;;;;;;5065361;28;11517;-85
2021/11/26 03:02:26;;;;;;;;;9.00;9.00;;;;;;;;5062134;28;11506;-83
2021/11/26 03:04:53;;;;;;;;;13.50;12.00;;;;;;;;5059617;28;11547;-82
2021/11/26 03:07:21;;;;;;;;;9.00;8.25;;;;;;;;5064251;28;12011;-84
2021/11/26 03:09:50;;;;;;;;;10.00;9.25;;;;;;;;5056611;28;11593;-78
2021/11/26 03:12:18;;;;;;;;;13.00;9.75;;;;;;;;5065427;28;11578;-83
2021/11/26 03:14:45;;;;;;;;;12.00;12.00;;;;;;;;5043648;28;11664;-84
2021/11/26 03:17:13;;;;;;;;;5.00;5.00;;;;;;;;5042407;28;11587;-82
2021/11/26 03:19:40;;;;;;;;;12.25;8.75;;;;;;;;5063915;28;11555;-83
2021/11/26 03:22:07;;;;;;;;;13.00;12.00;;;;;;;;5051887;28;11624;-83
2021/11/26 03:24:35;;;;;;;;;10.50;10.00;;;;;;;;5065260;28;11621;-82
2021/11/26 03:27:04;;;;;;;;;12.50;9.50;;;;;;;;5065650;28;11574;-84
2021/11/26 03:29:31;;;;;;;;;11.50;9.50;;;;;;;;5067727;28;11545;-83
2021/11/26 03:31:59;;;;;;;;;13.25;10.00;;;;;;;;5068666;28;11529;-85
2021/11/26 03:34:26;;;;;;;;;11.25;9.00;;;;;;;;5072250;28;11567;-84
2021/11/26 03:36:53;;;;;;;;;10.25;10.25;;;;;;;;5062268;28;12214;-85
2021/11/26 03:39:21;;;;;;;;;9.25;9.25;;;;;;;;5060960;28;11604;-85
2021/11/26 03:41:48;;;;;;;;;11.75;10.00;;;;;;;;5066360;28;11707;-86
2021/11/26 03:44:18;;;;;;;;;13.75;13.75;;;;;;;;5064716;28;11573;-86
2021/11/26 03:46:46;;;;;;;;;16.00;12.25;;;;;;;;5060232;28;11590;-85
2021/11/26 03:49:13;;;;;;;;;10.00;10.00;;;;;;;;5066743;28;11745;-83
2021/11/26 03:51:41;;;;;;;;;10.50;9.50;;;;;;;;5060770;28;11598;-86
2021/11/26 03:54:08;;;;;;;;;19.00;14.50;;;;;;;;5066677;28;11675;-84
2021/11/26 03:56:47;;;;;;;;;;;;;;;;;;;;;
2021/11/26 03:59:31;;;;;;;;;18.75;16.50;;;;;;;;5063816;28;12411;-82
2021/11/26 04:01:58;;;;;;;;;9.50;9.25;;;;;;;;5063349;28;11572;-82
2021/11/26 04:04:26;;;;;;;;;8.75;7.50;;;;;;;;5067758;28;11565;-82
2021/11/26 04:06:53;;;;;;;;;12.00;12.00;;;;;;;;5066729;28;12336;-82
2021/11/26 04:09:20;;;;;;;;;9.75;9.75;;;;;;;;5065029;28;11564;-82
2021/11/26 04:11:47;;;;;;;;;12.00;12.00;;;;;;;;5064046;28;11634;-82
2021/11/26 04:14:15;;;;;;;;;12.00;8.00;;;;;;;;5046852;28;11658;-82
2021/11/26 04:16:46;;;;;;;;;13.00;9.00;;;;;;;;5064399;28;11620;-82
2021/11/26 04:19:13;;;;;;;;;8.75;8.25;;;;;;;;5047067;28;11598;-82
2021/11/26 04:21:41;;;;;;;;;16.00;16.00;;;;;;;;5047390;28;11531;-79
2021/11/26 04:24:08;;;;;;;;;18.75;13.25;;;;;;;;5070092;28;11725;-81
2021/11/26 04:26:37;;;;;;;;;11.25;9.50;;;;;;;;5060013;28;11607;-79
2021/11/26 04:29:04;;;;;;;;;16.00;12.75;;;;;;;;5060026;28;11543;-80
2021/11/26 04:31:32;;;;;;;;;17.50;12.75;;;;;;;;5062446;28;11540;-80
2021/11/26 04:34:01;;;;;;;;;9.50;9.50;;;;;;;;5047713;28;11524;-80
2021/11/26 04:36:28;;;;;;;;;10.50;10.00;;;;;;;;5064340;28;11619;-79
2021/11/26 04:38:56;;;;;;;;;8.00;6.00;;;;;;;;5061430;28;12384;-80
2021/11/26 04:41:23;;;;;;;;;15.75;13.25;;;;;;;;5061621;28;11557;-79
2021/11/26 04:43:50;;;;;;;;;12.00;12.00;;;;;;;;5062554;28;11583;-80
2021/11/26 04:46:18;;;;;;;;;12.00;12.00;;;;;;;;5049904;28;11591;-79
2021/11/26 04:48:45;;;;;;;;;8.00;8.00;;;;;;;;5063850;28;11612;-81
2021/11/26 04:51:14;;;;;;;;;12.75;12.75;;;;;;;;5059432;28;11537;-80
2021/11/26 04:53:42;;;;;;;;;12.25;9.75;;;;;;;;5069933;28;12200;-84
2021/11/26 04:56:09;;;;;;;;;13.00;13.00;;;;;;;;5064968;28;11685;-80
2021/11/26 04:58:36;;;;;;;;;10.75;8.25;;;;;;;;5065036;28;11624;-84
2021/11/26 05:01:05;;;;;;;;;14.50;10.25;;;;;;;;5063139;28;11527;-82
2021/11/26 05:03:33;;;;;;;;;11.00;8.00;;;;;;;;5065965;28;12311;-84
2021/11/26 05:06:01;;;;;;;;;17.00;14.50;;;;;;;;5053323;28;11579;-81
2021/11/26 05:08:29;;;;;;;;;15.00;12.75;;;;;;;;5072577;28;11633;-83
2021/11/26 05:10:57;;;;;;;;;16.50;14.75;;;;;;;;5080657;28;11711;-85
2021/11/26 05:13:28;;;;;;;;;10.75;10.75;;;;;;;;5058613;28;11662;-82
2021/11/26 05:15:55;;;;;;;;;13.75;12.50;;;;;;;;5060937;28;11746;-81
2021/11/26 05:18:24;;;;;;;;;10.00;10.00;;;;;;;;5062034;28;11703;-81
2021/11/26 05:20:52;;;;;;;;;13.00;13.00;;;;;;;;5060500;28;11507;-82
2021/11/26 05:23:19;;;;;;;;;12.00;12.00;;;;;;;;5042657;28;11577;-83
2021/11/26 05:25:48;;;;;;;;;13.00;13.00;;;;;;;;5065145;28;11573;-84
2021/11/26 05:28:16;;;;;;;;;18.00;16.00;;;;;;;;5043918;28;11595;-83
2021/11/26 05:30:43;;;;;;;;;18.00;16.75;;;;;;;;5063381;28;11587;-83
2021/11/26 05:33:11;;;;;;;;;11.75;11.75;;;;;;;;5067006;28;12328;-84
2021/11/26 05:35:38;;;;;;;;;19.00;16.25;;;;;;;;5069531;28;11659;-81
2021/11/26 05:38:06;;;;;;;;;16.50;16.50;;;;;;;;5061377;28;11683;-83
2021/11/26 05:40:33;;;;;;;;;13.00;13.00;;;;;;;;5056610;28;11629;-81
2021/11/26 05:43:02;;;;;;;;;16.25;15.00;;;;;;;;5041859;28;11710;-82
2021/11/26 05:45:30;;;;;;;;;14.25;14.25;;;;;;;;5063166;28;11662;-82
2021/11/26 05:47:57;;;;;;;;;16.75;16.75;;;;;;;;5065297;28;11631;-83
2021/11/26 05:50:26;;;;;;;;;18.75;18.75;;;;;;;;5060674;28;12369;-83
2021/11/26 05:52:53;;;;;;;;;15.75;14.75;;;;;;;;5060996;28;11601;-81
2021/11/26 05:55:24;;;;;;;;;18.00;12.75;;;;;;;;5068467;28;11685;-82
2021/11/26 05:57:52;;;;;;;;;18.50;17.75;;;;;;;;5062971;28;11561;-82
2021/11/26 06:00:23;;;;;;;;;12.25;10.00;;;;;;;;5061478;28;11643;-83
2021/11/26 06:02:50;;;;;;;;;13.50;13.50;;;;;;;;5054845;28;11771;-81
2021/11/26 06:05:18;;;;;;;;;14.00;13.25;;;;;;;;5060532;28;11603;-83
2021/11/26 06:07:45;;;;;;;;;12.75;12.75;;;;;;;;5060755;28;11605;-83
2021/11/26 06:10:14;;;;;;;;;16.00;13.25;;;;;;;;5061024;28;12373;-85
2021/11/26 06:12:43;;;;;;;;;14.50;10.25;;;;;;;;5062933;28;11544;-84
2021/11/26 06:15:12;;;;;;;;;15.50;12.50;;;;;;;;5063839;28;11723;-85
2021/11/26 06:17:41;;;;;;;;;9.50;9.50;;;;;;;;5061212;28;11574;-89
2021/11/26 06:20:11;;;;;;;;;9.75;8.25;;;;;;;;5059085;28;11568;-82
2021/11/26 06:22:40;;;;;;;;;15.50;13.25;;;;;;;;5041074;28;11576;-88
2021/11/26 06:25:08;;;;;;;;;16.25;14.50;;;;;;;;5063032;28;11590;-89
2021/11/26 06:27:35;;;;;;;;;13.50;13.50;;;;;;;;5065681;28;11569;-84
2021/11/26 06:30:04;;;;;;;;;13.50;13.50;;;;;;;;5064064;28;11559;-91
2021/11/26 06:32:31;;;;;;;;;20.25;16.00;;;;;;;;5061334;28;11551;-89
2021/11/26 06:35:00;;;;;;;;;14.00;13.00;;;;;;;;5058163;28;11662;-89
2021/11/26 06:37:28;;;;;;;;;14.00;14.00;;;;;;;;5056295;28;11609;-88
2021/11/26 06:39:55;;;;;;;;;21.50;14.50;;;;;;;;5079643;28;11737;-88
2021/11/26 06:42:22;;;;;;;;;16.25;14.75;;;;;;;;5061764;28;11590;-87
2021/11/26 06:44:51;;;;;;;;;16.00;12.00;;;;;;;;5064490;28;11668;-88
2021/11/26 06:47:20;;;;;;;;;21.50;16.50;;;;;;;;5064347;28;11580;-89
2021/11/26 06:49:48;;;;;;;;;18.50;12.50;;;;;;;;5047673;28;11612;-87
2021/11/26 06:52:17;;;;;;;;;20.00;17.25;;;;;;;;5064887;28;11606;-86
2021/11/26 06:54:45;;;;;;;;;16.75;15.50;;;;;;;;5045796;28;11730;-87
2021/11/26 06:57:12;;;;;;;;;13.00;13.00;;;;;;;;5061970;28;11763;-86
2021/11/26 06:59:39;;;;;;;;;12.50;12.25;;;;;;;;5061233;28;11686;-86
2021/11/26 07:02:07;;;;;;;;;8.75;8.75;;;;;;;;5043556;28;11628;-88
2021/11/26 07:04:34;;;;;;;;;13.25;13.00;;;;;;;;5062448;28;11596;-85
2021/11/26 07:07:02;;;;;;;;;14.75;14.00;;;;;;;;5064533;28;11604;-79
2021/11/26 07:09:31;;;;;;;;;17.00;14.50;;;;;;;;5051333;28;11651;-80
2021/11/26 07:12:03;;;;;;;;;17.00;17.00;;;;;;;;5042736;28;11239;-88
2021/11/26 07:14:30;;;;;;;;;23.75;21.25;;;;;;;;5060971;28;11686;-88
2021/11/26 07:16:57;;;;;;;;;13.75;12.50;;;;;;;;5060272;28;11574;-89
2021/11/26 07:19:25;;;;;;;;;18.50;18.50;;;;;;;;5060262;28;11567;-91
2021/11/26 07:21:52;;;;;;;;;20.00;16.75;;;;;;;;5043437;28;11613;-93
2021/11/26 07:24:19;;;;;;;;;20.00;19.50;;;;;;;;5056621;28;11638;-90
2021/11/26 07:26:48;;;;;;;;;24.25;20.25;;;;;;;;5045566;28;11509;-91
2021/11/26 07:29:16;;;;;;;;;19.00;18.25;;;;;;;;5061195;28;11561;-91
2021/11/26 07:31:45;;;;;;;;;19.50;17.50;;;;;;;;5061614;28;11536;-91
2021/11/26 07:34:13;;;;;;;;;27.00;22.75;;;;;;;;5059726;28;11745;-87
2021/11/26 07:36:40;;;;;;;;;25.25;21.00;;;;;;;;5064341;28;11616;-86
2021/11/26 07:39:09;;;;;;;;;20.00;18.25;;;;;;;;5061222;28;11539;-82
2021/11/26 07:41:37;;;;;;;;;21.00;19.50;;;;;;;;5059588;28;11619;-84
2021/11/26 07:44:06;;;;;;;;;25.25;20.75;;;;;;;;5062502;28;11612;-85
2021/11/26 07:46:33;;;;;;;;;22.00;20.50;;;;;;;;5060803;28;11669;-83
2021/11/26 07:49:00;;;;;;;;;17.25;16.75;;;;;;;;5062871;28;11587;-88
2021/11/26 07:51:28;;;;;;;;;18.50;18.00;;;;;;;;5057358;28;11683;-83
2021/11/26 07:53:56;;;;;;;;;15.75;15.75;;;;;;;;5059686;28;11670;-84
2021/11/26 07:56:23;;;;;;;;;23.00;17.25;;;;;;;;5057594;28;11591;-85
2021/11/26 07:58:50;;;;;;;;;26.50;19.25;;;;;;;;5057339;28;12365;-78
2021/11/26 08:01:19;;;;;;;;;15.50;15.50;;;;;;;;5053630;28;11671;-83
2021/11/26 08:03:47;;;;;;;;;17.00;12.50;;;;;;;;5059894;28;11649;-75
2021/11/26 08:06:15;;;;;;;;;16.25;14.50;;;;;;;;5064853;28;11579;-74
2021/11/26 08:08:42;;;;;;;;;11.00;11.00;;;;;;;;5061817;28;11604;-75
2021/11/26 08:11:10;;;;;;;;;13.00;13.00;;;;;;;;5065233;28;11738;-74
2021/11/26 08:13:37;;;;;;;;;12.75;12.75;;;;;;;;5059488;28;11633;-77
2021/11/26 08:16:06;;;;;;;;;11.50;11.50;;;;;;;;5059972;28;12529;-77
2021/11/26 08:18:35;;;;;;;;;16.00;14.00;;;;;;;;5061040;28;11674;-78
2021/11/26 08:21:02;;;;;;;;;14.00;14.00;;;;;;;;5059045;28;11603;-76
2021/11/26 08:23:30;;;;;;;;;18.00;18.00;;;;;;;;5063340;28;11653;-78
2021/11/26 08:25:59;;;;;;;;;15.25;15.25;;;;;;;;5061065;28;11602;-78
2021/11/26 08:28:27;;;;;;;;;13.25;13.00;;;;;;;;5061802;28;11586;-77
2021/11/26 08:30:54;;;;;;;;;19.50;19.50;;;;;;;;5057527;28;11566;-78
2021/11/26 08:33:23;;;;;;;;;15.00;12.00;;;;;;;;5061196;28;11647;-76
2021/11/26 08:35:51;;;;;;;;;13.50;12.00;;;;;;;;5063342;28;11573;-77
2021/11/26 08:38:19;;;;;;;;;22.25;17.50;;;;;;;;5063507;28;11620;-75
2021/11/26 08:40:46;;;;;;;;;12.00;11.75;;;;;;;;5063151;28;11597;-77
2021/11/26 08:43:14;;;;;;;;;18.75;16.25;;;;;;;;5060841;28;11644;-75
2021/11/26 08:45:41;;;;;;;;;16.00;16.00;;;;;;;;5062180;28;11575;-75
2021/11/26 08:48:09;;;;;;;;;31.75;26.75;;;;;;;;5063169;28;11618;-75
2021/11/26 08:50:36;;;;;;;;;13.00;13.00;;;;;;;;5046575;28;11618;-76
2021/11/26 08:53:06;;;;;;;;;20.50;16.50;;;;;;;;5063289;28;11594;-76
2021/11/26 08:55:34;;;;;;;;;24.00;19.50;;;;;;;;5062759;28;11627;-77
2021/11/26 08:58:02;;;;;;;;;27.00;21.00;;;;;;;;5062394;28;11604;-73
2021/11/26 09:00:32;;;;;;;;;20.00;17.00;;;;;;;;5069196;28;11513;-78
2021/11/26 09:03:00;;;;;;;;;17.75;15.00;;;;;;;;5085143;28;11592;-77
2021/11/26 09:05:28;;;;;;;;;17.50;16.25;;;;;;;;5084525;28;12353;-78
2021/11/26 09:08:00;;;;;;;;;15.50;15.50;;;;;;;;5085241;28;11629;-77
2021/11/26 09:10:29;;;;;;;;;15.00;14.50;;;;;;;;5056746;28;11634;-78
2021/11/26 09:12:57;;;;;;;;;15.75;15.75;;;;;;;;5065059;28;11618;-75
2021/11/26 09:15:24;;;;;;;;;16.75;16.75;;;;;;;;5064662;28;12448;-76
2021/11/26 09:17:52;;;;;;;;;12.25;12.00;;;;;;;;5066686;28;11731;-75
2021/11/26 09:20:20;;;;;;;;;15.75;13.00;;;;;;;;5061684;28;11580;-76
2021/11/26 09:22:47;;;;;;;;;13.50;10.25;;;;;;;;5070727;28;11612;-76
2021/11/26 09:25:15;;;;;;;;;11.00;11.00;;;;;;;;5066032;28;11556;-76
2021/11/26 09:27:44;;;;;;;;;14.00;12.25;;;;;;;;5063903;28;11639;-76
2021/11/26 09:30:16;;;;;;;;;18.00;11.00;;;;;;;;5064661;28;11601;-77
2021/11/26 09:32:43;;;;;;;;;14.25;12.00;;;;;;;;5067931;28;11605;-76
2021/11/26 09:35:11;;;;;;;;;9.50;9.50;;;;;;;;5064217;28;11561;-76
2021/11/26 09:37:39;;;;;;;;;13.50;7.50;;;;;;;;5064915;28;11620;-77
2021/11/26 09:40:09;;;;;;;;;13.25;8.50;;;;;;;;5063924;28;11579;-76
2021/11/26 09:42:37;;;;;;;;;13.00;10.50;;;;;;;;5062974;28;11700;-76
2021/11/26 09:45:10;;;;;;;;;12.25;9.25;;;;;;;;5063410;28;12314;-76
2021/11/26 09:47:37;;;;;;;;;17.00;10.50;;;;;;;;5064941;28;11654;-76
2021/11/26 09:50:06;;;;;;;;;13.25;8.75;;;;;;;;5064430;28;11743;-77
2021/11/26 09:52:35;;;;;;;;;11.00;8.75;;;;;;;;5064339;28;11592;-76
2021/11/26 09:55:02;;;;;;;;;4.50;4.50;;;;;;;;5064291;28;11573;-76
2021/11/26 09:57:30;;;;;;;;;5.00;5.00;;;;;;;;5045287;28;11704;-76
2021/11/26 09:59:57;;;;;;;;;10.00;5.75;;;;;;;;5064672;28;11545;-77
2021/11/26 10:02:26;;;;;;;;;6.75;6.00;;;;;;;;5061930;28;11532;-76
2021/11/26 10:05:01;;;;;;;;;10.25;8.25;;;;;;;;5064294;28;11573;-76
2021/11/26 10:07:28;;;;;;;;;8.25;8.25;;;;;;;;5064323;28;11604;-77
2021/11/26 10:10:07;;;;;;;;;4.00;4.00;;;;;;;;5063703;28;11667;-75
2021/11/26 10:12:34;;;;;;;;;8.75;8.00;;;;;;;;5064219;28;11549;-76
2021/11/26 10:15:01;;;;;;;;;6.00;6.00;;;;;;;;5062940;28;11567;-76
2021/11/26 10:17:30;;;;;;;;;9.00;6.50;;;;;;;;5064399;28;11626;-76
2021/11/26 10:19:59;;;;;;;;;13.00;9.00;;;;;;;;5052986;28;11510;-77
2021/11/26 10:22:30;;;;;;;;;5.75;5.75;;;;;;;;5073806;28;11586;-77
2021/11/26 10:25:06;;;;;;;;;9.25;7.00;;;;;;;;5064101;28;11477;-77
2021/11/26 10:27:39;;;;;;;;;7.50;7.50;;;;;;;;5062191;28;11553;-76
2021/11/26 10:30:19;;;;;;;;;8.50;6.00;;;;;;;;5059817;28;11480;-78
2021/11/26 10:33:02;;;;;;;;;6.00;6.00;;;;;;;;5071220;28;12354;-76
2021/11/26 10:35:33;;;;;;;;;7.25;6.00;;;;;;;;5033222;28;11521;-76
2021/11/26 10:38:04;;;;;;;;;4.75;4.75;;;;;;;;5047683;28;11473;-77
2021/11/26 10:40:33;;;;;;;;;6.50;5.50;;;;;;;;5083090;28;11641;-77
2021/11/26 10:43:02;;;;;;;;;6.00;6.00;;;;;;;;5083905;28;11474;-77
2021/11/26 10:45:43;;;;;;;;;7.50;7.00;;;;;;;;5066810;28;11484;-77
2021/11/26 10:51:00;;;;;;;;;6.00;6.00;;;;;;;;5028092;28;11579;-76
2021/11/26 10:59:03;;;;;;;;;1.25;1.25;;;;;;;;5062596;28;12298;-77
2021/11/26 11:01:30;;;;;;;;;9.75;5.75;;;;;;;;5063214;28;11438;-77
2021/11/26 11:04:14;;;;;;;;;5.25;5.25;;;;;;;;5045309;28;11491;-78
2021/11/26 11:06:41;;;;;;;;;10.25;3.75;;;;;;;;5062713;28;11640;-77
2021/11/26 11:09:10;;;;;;;;;4.75;2.75;;;;;;;;5063874;28;11622;-77
2021/11/26 11:11:48;;;;;;;;;2.75;2.75;;;;;;;;5062575;28;11485;-77
2021/11/26 11:14:18;;;;;;;;;5.25;3.75;;;;;;;;5063773;28;11505;-77
2021/11/26 11:16:50;;;;;;;;;5.00;2.25;;;;;;;;5062858;28;11536;-77
2021/11/26 11:19:18;;;;;;;;;5.00;2.25;;;;;;;;5058492;28;11467;-77
2021/11/26 11:21:47;;;;;;;;;2.75;2.00;;;;;;;;5071974;28;11509;-76
2021/11/26 11:24:16;;;;;;;;;2.00;2.00;;;;;;;;5062114;28;11625;-77
2021/11/26 11:26:46;;;;;;;;;5.00;3.50;;;;;;;;5063611;28;11250;-78
2021/11/26 11:29:22;;;;;;;;;2.50;2.50;;;;;;;;5063566;28;11573;-77
2021/11/26 11:31:50;;;;;;;;;2.00;2.00;;;;;;;;5083662;28;11457;-78
2021/11/26 11:34:22;;;;;;;;;5.00;3.00;;;;;;;;5070243;28;11224;-78
2021/11/26 11:36:51;;;;;;;;;1.75;1.75;;;;;;;;5063117;28;11493;-77
2021/11/26 11:39:18;;;;;;;;;2.00;2.00;;;;;;;;5067163;28;11302;-78
2021/11/26 11:41:47;;;;;;;;;2.00;2.00;;;;;;;;5061504;28;11619;-77
2021/11/26 11:44:28;;;;;;;;;1.75;1.00;;;;;;;;5069384;28;11305;-76
2021/11/26 11:46:55;;;;;;;;;2.00;2.00;;;;;;;;5065367;28;11459;-76
2021/11/26 11:49:30;;;;;;;;;1.00;1.00;;;;;;;;5064972;28;11321;-78
2021/11/26 11:52:00;;;;;;;;;1.00;1.00;;;;;;;;5054347;28;11391;-76
2021/11/26 11:54:38;;;;;;;;;5.00;1.25;;;;;;;;5052602;28;12133;-75
2021/11/26 11:57:06;;;;;;;;;2.50;1.00;;;;;;;;5069705;28;11505;-76
2021/11/26 11:59:36;;;;;;;;;4.00;4.00;;;;;;;;5064880;28;11136;-75
2021/11/26 12:02:05;;;;;;;;;1.75;1.75;;;;;;;;5078277;28;11271;-76
2021/11/26 12:04:40;;;;;;;;;1.50;1.50;;;;;;;;5047492;28;11257;-78
2021/11/26 12:07:08;;;;;;;;;0.00;0.00;;;;;;;;5073792;28;11180;-76
2021/11/26 12:09:37;;;;;;;;;1.00;1.00;;;;;;;;5063370;28;10896;-74
2021/11/26 12:12:11;;;;;;;;;1.75;1.50;;;;;;;;5062539;28;11244;-77
2021/11/26 12:14:49;;;;;;;;;2.00;2.00;;;;;;;;5058991;28;11277;-76
2021/11/26 12:17:31;;;;;;;;;1.00;1.00;;;;;;;;5060176;28;11237;-77
2021/11/26 12:20:20;;;;;;;;;1.75;1.00;;;;;;;;5047022;28;12006;-76
2021/11/26 12:22:52;;;;;;;;;5.00;2.00;;;;;;;;5068685;28;11485;-77
2021/11/26 12:25:33;;;;;;;;;2.25;2.00;;;;;;;;5070550;28;11488;-76
2021/11/26 12:28:04;;;;;;;;;1.50;1.50;;;;;;;;5059234;28;11483;-75
2021/11/26 12:30:32;;;;;;;;;1.00;1.00;;;;;;;;5063593;28;12212;-75
2021/11/26 12:32:59;;;;;;;;;1.25;1.00;;;;;;;;5067417;28;11471;-76
2021/11/26 12:35:28;;;;;;;;;4.00;1.50;;;;;;;;5065841;28;11999;-79
2021/11/26 12:37:59;;;;;;;;;1.00;1.00;;;;;;;;5062271;28;11613;-74
2021/11/26 12:40:26;;;;;;;;;0.75;0.75;;;;;;;;5065016;28;11470;-76
2021/11/26 12:43:02;;;;;;;;;1.50;1.50;;;;;;;;5042712;28;11475;-77
2021/11/26 12:45:35;;;;;;;;;1.00;1.00;;;;;;;;5065468;28;11607;-77
2021/11/26 12:48:07;;;;;;;;;4.00;1.25;;;;;;;;5051935;28;12367;-76
2021/11/26 12:53:25;;;;;;;;;0.50;0.50;;;;;;;;5063808;28;11469;-76
2021/11/26 12:55:54;;;;;;;;;1.00;1.00;;;;;;;;5064560;28;11507;-75
2021/11/26 12:58:23;;;;;;;;;0.25;0.25;;;;;;;;5065690;28;11500;-76
2021/11/26 13:00:55;;;;;;;;;3.50;2.00;;;;;;;;5083074;28;11435;-77
2021/11/26 13:03:23;;;;;;;;;2.75;1.00;;;;;;;;5085591;28;12340;-77
2021/11/26 13:05:56;;;;;;;;;4.00;1.00;;;;;;;;5085433;28;11464;-75
2021/11/26 13:08:24;;;;;;;;;2.25;2.00;;;;;;;;5060055;28;11581;-75
2021/11/26 13:10:52;;;;;;;;;1.50;1.00;;;;;;;;5065763;28;11481;-76
2021/11/26 13:13:26;;;;;;;;;2.00;2.00;;;;;;;;5064476;28;11475;-76
2021/11/26 13:15:54;;;;;;;;;1.00;1.00;;;;;;;;5065129;28;11610;-75
2021/11/26 13:18:23;;;;;;;;;1.25;1.25;;;;;;;;5064603;28;11538;-73
2021/11/26 13:20:52;;;;;;;;;1.50;1.50;;;;;;;;5067348;28;11507;-74
2021/11/26 13:23:24;;;;;;;;;1.25;1.25;;;;;;;;5067455;28;11493;-74
2021/11/26 13:25:53;;;;;;;;;1.00;1.00;;;;;;;;5063621;28;11502;-73
2021/11/26 13:28:21;;;;;;;;;7.25;1.00;;;;;;;;5047306;28;11484;-75
2021/11/26 13:30:51;;;;;;;;;1.00;1.00;;;;;;;;5045622;28;11390;-75
2021/11/26 13:33:20;;;;;;;;;2.00;1.00;;;;;;;;5070741;28;11487;-73
2021/11/26 13:35:49;;;;;;;;;1.50;0.75;;;;;;;;5064164;28;11486;-74
2021/11/26 13:38:23;;;;;;;;;0.00;0.00;;;;;;;;5051607;28;11497;-73
2021/11/26 13:40:52;;;;;;;;;1.75;1.75;;;;;;;;5047145;28;11477;-76
2021/11/26 13:43:25;;;;;;;;;3.00;3.00;;;;;;;;5063163;28;11589;-74
2021/11/26 13:46:00;;;;;;;;;1.00;1.00;;;;;;;;5068507;28;11601;-76
2021/11/26 13:48:27;;;;;;;;;2.00;2.00;;;;;;;;5063728;28;11511;-74
2021/11/26 13:50:55;;;;;;;;;1.00;1.00;;;;;;;;5064535;28;11484;-74
2021/11/26 13:53:24;;;;;;;;;1.00;1.00;;;;;;;;5064214;28;11593;-76
2021/11/26 13:55:51;;;;;;;;;3.50;3.50;;;;;;;;5045343;28;11525;-77
2021/11/26 13:58:19;;;;;;;;;4.25;2.00;;;;;;;;5064726;28;11426;-75
2021/11/26 14:00:50;;;;;;;;;1.50;1.50;;;;;;;;5062700;28;11407;-75
2021/11/26 14:03:28;;;;;;;;;4.00;1.50;;;;;;;;5064068;28;11502;-75
2021/11/26 14:05:56;;;;;;;;;2.25;2.25;;;;;;;;5063478;28;11451;-75
2021/11/26 14:08:25;;;;;;;;;1.75;1.75;;;;;;;;5064503;28;11454;-74
2021/11/26 14:10:54;;;;;;;;;1.00;1.00;;;;;;;;5045788;28;12248;-76
2021/11/26 14:13:23;;;;;;;;;2.00;2.00;;;;;;;;5063459;28;11466;-76
2021/11/26 14:16:01;;;;;;;;;1.00;1.00;;;;;;;;5064148;28;11503;-76
2021/11/26 14:18:28;;;;;;;;;2.00;2.00;;;;;;;;5045384;28;11430;-75
2021/11/26 14:21:03;;;;;;;;;3.75;2.00;;;;;;;;5059579;28;11460;-75
2021/11/26 14:23:33;;;;;;;;;2.00;2.00;;;;;;;;5064829;28;11552;-80
2021/11/26 14:26:08;;;;;;;;;2.00;2.00;;;;;;;;5063835;28;11471;-76
2021/11/26 14:28:35;;;;;;;;;1.75;1.75;;;;;;;;5046807;28;11583;-76
2021/11/26 14:31:06;;;;;;;;;5.00;2.00;;;;;;;;5062076;28;11443;-75
2021/11/26 14:33:34;;;;;;;;;2.50;2.00;;;;;;;;5064051;28;11439;-76
2021/11/26 14:36:08;;;;;;;;;1.75;1.75;;;;;;;;5062782;28;11502;-78
2021/11/26 14:38:47;;;;;;;;;4.75;2.00;;;;;;;;5062500;28;11474;-74
2021/11/26 14:41:18;;;;;;;;;4.00;4.00;;;;;;;;5062788;28;11576;-75
2021/11/26 14:43:46;;;;;;;;;4.00;3.00;;;;;;;;5044691;28;11465;-77
2021/11/26 14:46:17;;;;;;;;;3.00;3.00;;;;;;;;5063753;28;11505;-76
2021/11/26 14:48:49;;;;;;;;;4.50;4.50;;;;;;;;5045165;28;11429;-74
2021/11/26 14:51:23;;;;;;;;;2.00;2.00;;;;;;;;5064200;28;11564;-76
2021/11/26 14:53:53;;;;;;;;;1.25;1.25;;;;;;;;5050070;28;12235;-74